createdAt,value
2019-01-19T00:00:57.498Z,136.27
2019-01-19T00:03:46.615Z,128.40
2019-01-19T00:06:22.878Z,141.87
2019-01-19T00:08:55.245Z,141.40
2019-01-19T00:11:50.763Z,142.97
2019-01-19T00:14:36.532Z,136.43
2019-01-19T00:17:29.817Z,137.47
2019-01-19T00:20:19.081Z,128.17
2019-01-19T00:23:01.099Z,124.97
2019-01-19T00:25:50.678Z,130.27
2019-01-19T00:29:08.136Z,137.83
2019-01-19T00:31:47.713Z,117.10
2019-01-19T00:34:36.437Z,108.77
2019-01-19T00:37:06.301Z,113.07
2019-01-19T00:40:05.246Z,105.83
2019-01-19T00:42:40.602Z,102.73
2019-01-19T00:48:24.532Z,84.03
2019-01-19T00:51:29.738Z,79.30
2019-01-19T00:54:00.520Z,85.10
2019-01-19T00:57:04.854Z,90.77
2019-01-19T00:59:37.417Z,80.07
2019-01-19T01:02:23.012Z,81.40
2019-01-19T01:04:53.642Z,80.17
2019-01-19T01:07:29.338Z,64.07
2019-01-19T01:10:09.480Z,74.20
2019-01-19T01:12:55.792Z,73.00
2019-01-19T01:15:43.057Z,66.30
2019-01-19T01:18:39.447Z,59.17
2019-01-19T01:21:19.690Z,71.70
2019-01-19T01:24:03.795Z,60.77
2019-01-19T01:27:06.414Z,69.20
2019-01-19T01:29:52.364Z,60.80
2019-01-19T01:32:26.764Z,64.80
2019-01-19T01:35:06.157Z,64.57
2019-01-19T01:37:39.792Z,72.53
2019-01-19T01:40:25.598Z,63.33
2019-01-19T01:43:21.709Z,69.30
2019-01-19T01:46:01.951Z,64.30
2019-01-19T01:48:51.446Z,74.10
2019-01-19T01:51:24.671Z,66.10
2019-01-19T01:54:11.940Z,63.60
2019-01-19T01:56:39.897Z,59.33
2019-01-19T01:59:16.661Z,62.43
2019-01-19T02:02:02.918Z,55.77
2019-01-19T02:04:48.410Z,62.17
2019-01-19T02:07:22.319Z,56.37
2019-01-19T02:10:27.534Z,56.33
2019-01-19T02:13:13.433Z,64.67
2019-01-19T02:16:00.792Z,63.90
2019-01-19T02:18:54.000Z,55.60
2019-01-19T02:21:39.917Z,43.70
2019-01-19T02:24:25.136Z,44.73
2019-01-19T02:27:14.442Z,44.23
2019-01-19T02:29:51.122Z,63.60
2019-01-19T02:32:47.319Z,61.27
2019-01-19T02:35:31.519Z,58.97
2019-01-19T02:41:12.506Z,49.67
2019-01-19T02:43:59.678Z,61.13
2019-01-19T02:46:55.909Z,57.03
2019-01-19T02:49:43.248Z,51.83
2019-01-19T02:55:16.405Z,51.97
2019-01-19T02:58:02.213Z,53.23
2019-01-19T03:00:52.144Z,51.33
2019-01-19T03:03:42.062Z,66.90
2019-01-19T03:06:38.311Z,59.13
2019-01-19T03:09:40.340Z,45.30
2019-01-19T03:12:19.287Z,33.77
2019-01-19T03:15:06.653Z,53.47
2019-01-19T03:17:39.112Z,58.13
2019-01-19T03:20:26.241Z,66.83
2019-01-19T03:22:59.033Z,60.30
2019-01-19T03:26:04.373Z,68.00
2019-01-19T03:28:34.937Z,59.23
2019-01-19T03:31:27.656Z,51.93
2019-01-19T03:33:59.013Z,63.57
2019-01-19T03:37:04.108Z,65.03
2019-01-19T03:39:35.354Z,67.50
2019-01-19T03:42:12.045Z,58.87
2019-01-19T03:45:11.117Z,47.10
2019-01-19T03:48:04.255Z,62.97
2019-01-19T03:50:37.892Z,47.87
2019-01-19T03:53:12.288Z,44.87
2019-01-19T03:56:01.400Z,48.00
2019-01-19T03:59:00.673Z,44.67
2019-01-19T04:01:35.818Z,45.65
2019-01-19T04:04:08.693Z,44.53
2019-01-19T04:06:39.800Z,56.50
2019-01-19T04:09:25.352Z,44.43
2019-01-19T04:12:16.663Z,46.17
2019-01-19T04:15:06.714Z,41.00
2019-01-19T04:17:50.159Z,43.47
2019-01-19T04:20:24.897Z,34.90
2019-01-19T04:22:54.497Z,45.83
2019-01-19T04:25:36.884Z,48.80
2019-01-19T04:28:05.164Z,35.83
2019-01-19T04:30:32.893Z,39.03
2019-01-19T04:33:00.492Z,33.93
2019-01-19T04:35:28.135Z,50.57
2019-01-19T04:38:24.391Z,50.17
2019-01-19T04:40:56.904Z,47.87
2019-01-19T04:43:24.916Z,42.07
2019-01-19T04:45:52.598Z,39.97
2019-01-19T04:48:21.775Z,40.57
2019-01-19T04:50:49.447Z,40.33
2019-01-19T04:53:17.134Z,39.37
2019-01-19T04:55:45.092Z,36.43
2019-01-19T04:58:12.848Z,40.00
2019-01-19T05:00:40.490Z,39.80
2019-01-19T05:03:08.171Z,37.47
2019-01-19T05:05:35.854Z,39.23
2019-01-19T05:08:03.530Z,43.70
2019-01-19T05:10:31.176Z,39.80
2019-01-19T05:12:59.229Z,40.27
2019-01-19T05:15:26.928Z,44.87
2019-01-19T05:17:55.362Z,36.23
2019-01-19T05:20:23.100Z,37.93
2019-01-19T05:22:52.191Z,41.37
2019-01-19T05:25:19.876Z,40.97
2019-01-19T05:27:47.896Z,33.93
2019-01-19T05:30:16.886Z,33.13
2019-01-19T05:32:44.896Z,30.63
2019-01-19T05:35:13.047Z,32.77
2019-01-19T05:37:40.712Z,20.03
2019-01-19T05:40:09.026Z,31.87
2019-01-19T05:42:36.972Z,31.00
2019-01-19T05:45:04.831Z,31.97
2019-01-19T05:47:32.551Z,30.77
2019-01-19T05:50:00.618Z,25.93
2019-01-19T05:52:28.229Z,27.27
2019-01-19T05:54:55.893Z,34.53
2019-01-19T05:57:23.689Z,28.53
2019-01-19T05:59:51.333Z,27.90
2019-01-19T06:02:21.472Z,30.80
2019-01-19T06:04:49.380Z,27.67
2019-01-19T06:07:17.057Z,26.00
2019-01-19T06:09:45.030Z,24.73
2019-01-19T06:12:13.042Z,21.87
2019-01-19T06:14:40.840Z,21.73
2019-01-19T06:17:08.542Z,22.30
2019-01-19T06:19:36.296Z,25.97
2019-01-19T06:22:04.363Z,29.63
2019-01-19T06:24:32.013Z,26.00
2019-01-19T06:26:59.760Z,28.37
2019-01-19T06:29:27.457Z,27.73
2019-01-19T06:31:55.211Z,24.10
2019-01-19T06:34:22.887Z,26.07
2019-01-19T06:36:55.074Z,27.23
2019-01-19T06:39:20.659Z,25.70
2019-01-19T06:41:48.364Z,23.50
2019-01-19T06:44:16.287Z,25.97
2019-01-19T06:46:43.895Z,21.40
2019-01-19T06:49:11.954Z,26.00
2019-01-19T06:51:39.936Z,24.43
2019-01-19T06:54:07.702Z,26.37
2019-01-19T06:56:35.416Z,22.03
2019-01-19T06:59:03.233Z,19.80
2019-01-19T07:01:30.962Z,21.47
2019-01-19T07:03:58.689Z,25.83
2019-01-19T07:06:26.646Z,21.70
2019-01-19T07:08:54.355Z,19.60
2019-01-19T07:11:22.067Z,29.57
2019-01-19T07:13:49.801Z,24.67
2019-01-19T07:16:17.504Z,21.97
2019-01-19T07:18:45.584Z,33.27
2019-01-19T07:21:13.251Z,21.20
2019-01-19T07:23:40.973Z,22.83
2019-01-19T07:26:08.672Z,21.50
2019-01-19T07:28:36.614Z,21.87
2019-01-19T07:31:06.903Z,21.17
2019-01-19T07:33:34.581Z,25.87
2019-01-19T07:36:02.324Z,24.70
2019-01-19T07:38:29.987Z,22.33
2019-01-19T07:40:57.672Z,26.83
2019-01-19T07:43:25.522Z,26.40
2019-01-19T07:45:53.245Z,21.57
2019-01-19T07:48:20.936Z,25.87
2019-01-19T07:50:48.634Z,23.87
2019-01-19T07:53:16.588Z,25.60
2019-01-19T07:55:44.269Z,24.43
2019-01-19T07:58:11.967Z,24.10
2019-01-19T08:00:39.634Z,18.87
2019-01-19T08:03:07.342Z,20.30
2019-01-19T08:05:35.031Z,20.63
2019-01-19T08:08:02.762Z,22.33
2019-01-19T08:10:30.757Z,23.17
2019-01-19T08:12:58.465Z,20.33
2019-01-19T08:15:26.435Z,27.13
2019-01-19T08:17:54.189Z,38.10
2019-01-19T08:20:21.930Z,20.50
2019-01-19T08:22:49.652Z,16.90
2019-01-19T08:25:17.879Z,20.67
2019-01-19T08:27:45.603Z,21.67
2019-01-19T08:30:23.534Z,18.33
2019-01-19T08:32:51.210Z,18.90
2019-01-19T08:35:19.383Z,23.50
2019-01-19T08:37:47.202Z,26.37
2019-01-19T08:40:16.052Z,23.03
2019-01-19T08:42:44.672Z,24.23
2019-01-19T08:45:12.671Z,19.53
2019-01-19T08:47:40.403Z,22.17
2019-01-19T08:50:08.183Z,24.10
2019-01-19T08:52:36.286Z,22.70
2019-01-19T08:55:04.565Z,21.60
2019-01-19T08:57:33.548Z,16.40
2019-01-19T09:00:01.289Z,17.13
2019-01-19T09:02:29.626Z,15.13
2019-01-19T09:04:57.468Z,24.00
2019-01-19T09:07:33.353Z,23.00
2019-01-19T09:09:55.034Z,28.03
2019-01-19T09:12:23.045Z,11.07
2019-01-19T09:14:51.162Z,15.00
2019-01-19T09:17:19.306Z,21.57
2019-01-19T09:19:47.200Z,19.17
2019-01-19T09:22:15.606Z,18.03
2019-01-19T09:24:43.709Z,32.47
2019-01-19T09:27:14.486Z,19.93
2019-01-19T09:29:42.253Z,22.07
2019-01-19T09:32:10.076Z,21.20
2019-01-19T09:34:37.833Z,14.80
2019-01-19T09:37:05.575Z,21.43
2019-01-19T09:39:33.671Z,21.03
2019-01-19T09:42:01.404Z,21.40
2019-01-19T09:44:30.294Z,21.43
2019-01-19T09:47:00.109Z,18.43
2019-01-19T09:49:27.867Z,18.37
2019-01-19T09:51:55.596Z,20.30
2019-01-19T09:54:24.850Z,26.87
2019-01-19T09:56:52.676Z,19.73
2019-01-19T09:59:20.501Z,24.10
2019-01-19T10:01:48.220Z,19.43
2019-01-19T10:04:15.900Z,18.97
2019-01-19T10:06:43.642Z,19.10
2019-01-19T10:09:11.359Z,21.63
2019-01-19T10:11:39.059Z,16.07
2019-01-19T10:14:08.545Z,17.53
2019-01-19T10:16:36.215Z,15.97
2019-01-19T10:19:04.332Z,23.60
2019-01-19T10:21:32.572Z,18.90
2019-01-19T10:24:00.357Z,19.20
2019-01-19T10:26:28.043Z,18.30
2019-01-19T10:28:56.358Z,15.90
2019-01-19T10:31:24.057Z,20.23
2019-01-19T10:33:51.878Z,19.73
2019-01-19T10:36:19.855Z,23.90
2019-01-19T10:38:47.879Z,16.63
2019-01-19T10:41:15.938Z,21.97
2019-01-19T10:43:43.637Z,19.80
2019-01-19T10:46:11.444Z,20.23
2019-01-19T10:48:40.287Z,20.33
2019-01-19T10:51:08.013Z,19.33
2019-01-19T10:53:36.063Z,18.83
2019-01-19T10:56:03.844Z,20.57
2019-01-19T10:58:31.729Z,20.87
2019-01-19T11:00:59.430Z,16.90
2019-01-19T11:03:27.475Z,16.47
2019-01-19T11:05:55.147Z,17.60
2019-01-19T11:08:24.026Z,19.33
2019-01-19T11:10:51.713Z,20.33
2019-01-19T11:13:19.463Z,19.73
2019-01-19T11:15:47.109Z,18.33
2019-01-19T11:18:14.889Z,19.60
2019-01-19T11:20:42.566Z,21.67
2019-01-19T11:23:10.740Z,23.13
2019-01-19T11:25:38.719Z,14.40
2019-01-19T11:28:06.775Z,16.93
2019-01-19T11:30:34.497Z,18.10
2019-01-19T11:33:02.204Z,14.67
2019-01-19T11:35:30.010Z,16.20
2019-01-19T11:37:58.685Z,15.83
2019-01-19T11:40:27.571Z,17.87
2019-01-19T11:42:55.246Z,17.13
2019-01-19T11:45:23.636Z,15.60
2019-01-19T11:47:51.515Z,14.13
2019-01-19T11:50:19.483Z,13.90
2019-01-19T11:52:47.531Z,16.47
2019-01-19T11:55:18.116Z,15.10
2019-01-19T11:57:46.560Z,18.97
2019-01-19T12:00:16.739Z,18.57
2019-01-19T12:02:44.453Z,15.57
2019-01-19T12:05:12.531Z,15.03
2019-01-19T12:07:40.341Z,14.77
2019-01-19T12:10:09.383Z,13.13
2019-01-19T12:12:37.360Z,8.67
2019-01-19T12:15:05.601Z,12.37
2019-01-19T12:17:33.309Z,15.20
2019-01-19T12:20:01.283Z,15.00
2019-01-19T12:22:29.097Z,16.57
2019-01-19T12:24:56.782Z,16.07
2019-01-19T12:27:24.866Z,15.60
2019-01-19T12:29:52.879Z,15.03
2019-01-19T12:32:20.911Z,15.10
2019-01-19T12:34:48.927Z,11.30
2019-01-19T12:37:16.716Z,13.43
2019-01-19T12:39:44.853Z,13.37
2019-01-19T12:42:12.578Z,13.60
2019-01-19T12:44:40.234Z,14.53
2019-01-19T12:47:08.293Z,14.00
2019-01-19T12:49:35.943Z,12.23
2019-01-19T12:52:03.649Z,17.87
2019-01-19T12:54:31.301Z,12.37
2019-01-19T12:56:59.368Z,13.07
2019-01-19T12:59:28.094Z,11.73
2019-01-19T13:01:55.798Z,10.67
2019-01-19T13:04:23.791Z,10.67
2019-01-19T13:06:53.249Z,13.60
2019-01-19T13:09:25.452Z,9.60
2019-01-19T13:12:15.641Z,11.70
2019-01-19T13:14:46.642Z,12.50
2019-01-19T13:17:42.569Z,12.23
2019-01-19T13:20:15.663Z,10.47
2019-01-19T13:23:18.018Z,11.70
2019-01-19T13:25:59.088Z,10.43
2019-01-19T13:28:40.007Z,16.67
2019-01-19T13:31:33.030Z,13.43
2019-01-19T13:34:15.840Z,9.67
2019-01-19T13:37:01.473Z,10.83
2019-01-19T13:39:48.266Z,12.50
2019-01-19T13:42:41.397Z,14.40
2019-01-19T13:45:13.834Z,7.77
2019-01-19T13:48:10.849Z,9.43
2019-01-19T13:50:56.771Z,11.03
2019-01-19T13:53:46.761Z,10.30
2019-01-19T13:56:31.023Z,9.43
2019-01-19T13:59:33.424Z,13.93
2019-01-19T14:02:24.505Z,9.73
2019-01-19T14:05:14.475Z,10.80
2019-01-19T14:08:02.935Z,11.40
2019-01-19T14:10:50.020Z,9.47
2019-01-19T14:13:36.105Z,12.27
2019-01-19T14:16:13.045Z,10.83
2019-01-19T14:19:07.241Z,16.67
2019-01-19T14:21:54.369Z,12.23
2019-01-19T14:24:41.533Z,17.07
2019-01-19T14:27:16.477Z,15.17
2019-01-19T14:30:02.002Z,11.10
2019-01-19T14:33:00.959Z,14.23
2019-01-19T14:35:53.970Z,17.37
2019-01-19T14:38:32.619Z,15.40
2019-01-19T14:41:37.835Z,15.17
2019-01-19T14:44:27.649Z,15.37
2019-01-19T14:47:17.609Z,12.87
2019-01-19T14:50:16.988Z,19.33
2019-01-19T14:53:04.257Z,13.67
2019-01-19T14:55:42.807Z,13.63
2019-01-19T14:58:45.025Z,13.63
2019-01-19T15:01:20.033Z,12.57
2019-01-19T15:03:52.201Z,14.07
2019-01-19T15:06:28.957Z,18.73
2019-01-19T15:09:15.291Z,10.10
2019-01-19T15:11:50.747Z,15.57
2019-01-19T15:14:50.627Z,13.53
2019-01-19T15:17:37.812Z,14.87
2019-01-19T15:20:23.754Z,17.87
2019-01-19T15:23:11.027Z,16.03
2019-01-19T15:26:04.068Z,20.50
2019-01-19T15:28:46.891Z,13.93
2019-01-19T15:31:37.253Z,21.57
2019-01-19T15:34:27.185Z,16.60
2019-01-19T15:37:20.506Z,22.07
2019-01-19T15:39:55.487Z,17.57
2019-01-19T15:42:41.294Z,16.50
2019-01-19T15:45:19.878Z,16.20
2019-01-19T15:48:16.254Z,15.90
2019-01-19T15:51:06.294Z,14.37
2019-01-19T15:53:39.967Z,13.07
2019-01-19T15:56:23.676Z,11.10
2019-01-19T15:59:13.983Z,17.50
2019-01-19T16:01:57.196Z,17.73
2019-01-19T16:04:44.678Z,15.53
2019-01-19T16:07:30.931Z,15.20
2019-01-19T16:10:12.323Z,16.03
2019-01-19T16:13:08.500Z,14.50
2019-01-19T16:15:58.661Z,20.33
2019-01-19T16:18:44.245Z,13.93
2019-01-19T16:21:22.464Z,16.93
2019-01-19T16:24:15.814Z,17.33
2019-01-19T16:27:01.483Z,14.43
2019-01-19T16:29:36.098Z,22.93
2019-01-19T16:32:32.741Z,16.37
2019-01-19T16:35:17.648Z,14.00
2019-01-19T16:37:59.020Z,16.53
2019-01-19T16:40:49.014Z,20.77
2019-01-19T16:43:36.251Z,13.63
2019-01-19T16:46:22.071Z,13.33
2019-01-19T16:48:56.482Z,13.83
2019-01-19T16:51:42.334Z,13.40
2019-01-19T16:54:35.351Z,15.33
2019-01-19T16:57:41.188Z,16.30
2019-01-19T17:00:30.874Z,17.90
2019-01-19T17:03:16.408Z,17.23
2019-01-19T17:06:01.033Z,18.43
2019-01-19T17:08:46.546Z,18.03
2019-01-19T17:11:42.711Z,16.80
2019-01-19T17:14:38.766Z,16.47
2019-01-19T17:17:20.350Z,11.50
2019-01-19T17:20:06.108Z,18.83
2019-01-19T17:22:51.685Z,17.57
2019-01-19T17:25:38.904Z,17.00
2019-01-19T17:28:32.073Z,28.93
2019-01-19T17:31:09.596Z,27.47
2019-01-19T17:33:46.471Z,16.53
2019-01-19T17:36:30.394Z,18.47
2019-01-19T17:39:13.046Z,19.03
2019-01-19T17:42:06.495Z,18.00
2019-01-19T17:44:37.837Z,17.47
2019-01-19T17:47:17.982Z,21.57
2019-01-19T17:49:54.722Z,18.80
2019-01-19T17:52:47.828Z,16.57
2019-01-19T17:55:23.886Z,19.47
2019-01-19T17:58:24.441Z,25.40
2019-01-19T18:01:12.510Z,50.65
2019-01-19T18:04:09.632Z,21.47
2019-01-19T18:06:48.193Z,20.03
2019-01-19T18:09:35.804Z,15.87
2019-01-19T18:12:31.941Z,15.17
2019-01-19T18:15:34.436Z,14.60
2019-01-19T18:18:30.742Z,16.97
2019-01-19T18:21:20.821Z,17.10
2019-01-19T18:24:26.274Z,19.23
2019-01-19T18:27:15.842Z,15.47
2019-01-19T18:30:22.013Z,20.93
2019-01-19T18:33:07.467Z,17.70
2019-01-19T18:35:57.791Z,21.10
2019-01-19T18:38:50.891Z,16.53
2019-01-19T18:41:34.317Z,22.57
2019-01-19T18:44:21.791Z,18.20
2019-01-19T18:47:12.052Z,19.80
2019-01-19T18:50:02.441Z,22.77
2019-01-19T18:52:49.354Z,19.60
2019-01-19T18:55:42.384Z,17.47
2019-01-19T18:58:27.279Z,25.07
2019-01-19T19:00:59.370Z,20.53
2019-01-19T19:03:54.091Z,24.00
2019-01-19T19:06:51.505Z,18.70
2019-01-19T19:09:42.562Z,20.97
2019-01-19T19:12:28.068Z,23.77
2019-01-19T19:15:08.498Z,16.77
2019-01-19T19:18:01.526Z,20.00
2019-01-19T19:21:03.605Z,21.07
2019-01-19T19:23:49.455Z,18.00
2019-01-19T19:26:33.283Z,22.27
2019-01-19T19:29:08.197Z,20.73
2019-01-19T19:31:54.137Z,25.13
2019-01-19T19:34:43.088Z,20.67
2019-01-19T19:37:33.112Z,24.50
2019-01-19T19:40:26.232Z,21.33
2019-01-19T19:43:31.645Z,23.87
2019-01-19T19:46:18.861Z,20.17
2019-01-19T19:49:04.804Z,18.23
2019-01-19T19:52:04.044Z,20.93
2019-01-19T19:54:32.166Z,20.30
2019-01-19T19:57:00.377Z,23.23
2019-01-19T19:59:28.008Z,18.53
2019-01-19T20:01:56.925Z,20.97
2019-01-19T20:04:24.633Z,21.13
2019-01-19T20:06:52.783Z,21.03
2019-01-19T20:09:20.620Z,20.03
2019-01-19T20:11:48.545Z,20.77
2019-01-19T20:14:16.283Z,20.20
2019-01-19T20:16:45.116Z,21.77
2019-01-19T20:19:13.097Z,23.23
2019-01-19T20:21:40.790Z,20.47
2019-01-19T20:24:08.527Z,21.43
2019-01-19T20:26:36.635Z,23.90
2019-01-19T20:29:06.084Z,20.47
2019-01-19T20:31:33.819Z,22.00
2019-01-19T20:34:01.730Z,21.97
2019-01-19T20:36:29.683Z,21.87
2019-01-19T20:38:57.817Z,23.13
2019-01-19T20:41:25.720Z,25.57
2019-01-19T20:43:53.313Z,22.57
2019-01-19T20:46:21.025Z,21.93
2019-01-19T20:48:48.762Z,23.33
2019-01-19T20:51:16.465Z,22.30
2019-01-19T20:53:44.040Z,23.00
2019-01-19T20:56:11.709Z,24.93
2019-01-19T20:58:39.295Z,23.97
2019-01-19T21:01:06.887Z,24.60
2019-01-19T21:03:34.498Z,24.40
2019-01-19T21:06:02.475Z,23.97
2019-01-19T21:08:30.281Z,21.90
2019-01-19T21:10:57.875Z,23.63
2019-01-19T21:13:25.600Z,20.27
2019-01-19T21:15:53.524Z,20.17
2019-01-19T21:18:21.184Z,27.10
2019-01-19T21:20:48.856Z,25.17
2019-01-19T21:23:16.484Z,19.60
2019-01-19T21:25:44.081Z,23.90
2019-01-19T21:28:11.706Z,24.23
2019-01-19T21:30:39.712Z,22.10
2019-01-19T21:33:07.796Z,23.37
2019-01-19T21:35:35.812Z,23.97
2019-01-19T21:38:14.119Z,23.67
2019-01-19T21:40:42.391Z,24.80
2019-01-19T21:43:10.098Z,31.47
2019-01-19T21:45:37.847Z,29.67
2019-01-19T21:48:05.547Z,23.93
2019-01-19T21:50:33.524Z,25.73
2019-01-19T21:53:01.290Z,28.13
2019-01-19T21:55:28.970Z,27.80
2019-01-19T21:57:56.768Z,31.17
2019-01-19T22:00:24.513Z,25.80
2019-01-19T22:02:52.191Z,26.50
2019-01-19T22:05:19.968Z,26.93
2019-01-19T22:07:47.926Z,24.20
2019-01-19T22:10:16.211Z,27.00
2019-01-19T22:12:43.969Z,31.07
2019-01-19T22:15:12.794Z,29.07
2019-01-19T22:17:41.412Z,31.43
2019-01-19T22:20:09.992Z,25.17
2019-01-19T22:22:48.007Z,32.50
2019-01-19T22:25:25.429Z,29.10
2019-01-19T22:30:47.871Z,29.63
2019-01-19T22:33:16.089Z,24.93
2019-01-19T22:35:44.405Z,29.00
2019-01-19T22:38:12.277Z,32.80
2019-01-19T22:40:40.000Z,25.90
2019-01-19T22:43:08.796Z,28.33
2019-01-19T22:45:36.970Z,33.87
2019-01-19T22:48:04.674Z,30.47
2019-01-19T22:50:32.711Z,30.97
2019-01-19T22:53:00.764Z,32.30
2019-01-19T22:55:28.579Z,36.13
2019-01-19T22:57:56.576Z,33.93
2019-01-19T23:00:58.989Z,29.43
2019-01-19T23:03:28.094Z,30.23
2019-01-19T23:05:56.285Z,31.07
2019-01-19T23:08:23.981Z,30.23
2019-01-19T23:10:52.031Z,26.30
2019-01-19T23:13:20.483Z,26.80
2019-01-19T23:15:48.409Z,28.00
2019-01-19T23:18:16.668Z,29.53
2019-01-19T23:20:44.390Z,26.90
2019-01-19T23:23:13.419Z,30.30
2019-01-19T23:25:41.245Z,24.60
2019-01-19T23:28:12.897Z,23.50
2019-01-19T23:30:46.098Z,25.53
2019-01-19T23:33:14.026Z,26.03
2019-01-19T23:35:41.848Z,27.10
2019-01-19T23:38:09.496Z,24.27
2019-01-19T23:40:37.411Z,24.23
2019-01-19T23:43:05.352Z,23.47
2019-01-19T23:45:34.613Z,26.17
2019-01-19T23:48:02.315Z,24.73
2019-01-19T23:50:30.555Z,24.07
2019-01-19T23:52:58.258Z,23.27
2019-01-19T23:55:26.546Z,23.90
2019-01-19T23:57:54.620Z,25.73
